Time;durP1;ratioP1;P1;durP2;ratioP2;P2;SDS_P1;SDS_P2;PMS_P1;PMS_P2;Temp;Humidity;BMP_temperature;BMP_pressure;BME280_temperature;BME280_humidity;BME280_pressure;Samples;Min_cycle;Max_cycle;Signal;HPM_P1;HPM_P2
2023/04/24 00:02:19;;;;;;;8.88;8.18;;;8.30;99.90;;;;;;6161000;23;20025;-88
2023/04/24 00:04:45;;;;;;;8.50;7.80;;;8.30;99.90;;;;;;6161356;23;20047;-88
2023/04/24 00:07:12;;;;;;;8.20;7.60;;;8.30;99.90;;;;;;6185641;23;20043;-88
2023/04/24 00:09:38;;;;;;;9.45;8.63;;;8.30;99.90;;;;;;6160568;23;20005;-92
2023/04/24 00:12:04;;;;;;;8.63;7.93;;;8.20;99.90;;;;;;6160738;23;20012;-87
2023/04/24 00:14:31;;;;;;;8.38;7.68;;;8.30;99.90;;;;;;6160452;23;20040;-88
2023/04/24 00:16:57;;;;;;;9.70;8.90;;;8.20;99.90;;;;;;6159827;23;20425;-89
2023/04/24 00:19:22;;;;;;;9.07;8.27;;;8.20;99.90;;;;;;6160733;23;20021;-88
2023/04/24 00:21:51;;;;;;;10.27;9.27;;;8.20;99.90;;;;;;6160407;23;20103;-88
2023/04/24 00:24:18;;;;;;;8.38;7.60;;;8.20;99.90;;;;;;6159988;23;20082;-88
2023/04/24 00:26:43;;;;;;;8.90;8.10;;;8.20;99.90;;;;;;6159986;23;20075;-87
2023/04/24 00:29:12;;;;;;;8.85;8.13;;;8.30;99.90;;;;;;6160442;23;20080;-87
2023/04/24 00:31:38;;;;;;;9.30;8.60;;;8.30;99.90;;;;;;6161265;23;20028;-87
2023/04/24 00:34:04;;;;;;;9.20;8.50;;;8.40;99.90;;;;;;6160609;23;20025;-88
2023/04/24 00:36:30;;;;;;;9.38;8.55;;;8.40;99.90;;;;;;6159991;23;20005;-88
2023/04/24 00:38:57;;;;;;;9.48;8.52;;;8.50;99.90;;;;;;6160440;23;20008;-87
2023/04/24 00:41:25;;;;;;;8.32;7.72;;;8.60;99.90;;;;;;6162046;23;20012;-88
2023/04/24 00:43:52;;;;;;;9.10;8.30;;;8.60;99.90;;;;;;6160652;23;20028;-87
2023/04/24 00:46:19;;;;;;;9.10;8.32;;;8.60;99.90;;;;;;6159206;23;20114;-88
2023/04/24 00:48:48;;;;;;;8.93;8.13;;;8.60;99.90;;;;;;6160299;23;20005;-88
2023/04/24 00:51:14;;;;;;;9.15;8.35;;;8.80;99.90;;;;;;6160790;23;20464;-87
2023/04/24 00:53:40;;;;;;;9.02;8.30;;;9.00;99.90;;;;;;6159176;23;20005;-88
2023/04/24 00:56:05;;;;;;;8.45;7.75;;;9.30;99.90;;;;;;6159033;23;20008;-88
2023/04/24 00:58:32;;;;;;;9.02;8.27;;;9.50;99.90;;;;;;6159950;23;20449;-88
2023/04/24 01:00:58;;;;;;;8.52;7.82;;;9.60;99.90;;;;;;6159500;23;20001;-87
2023/04/24 01:03:30;;;;;;;7.60;7.00;;;9.70;99.90;;;;;;6156936;23;20062;-87
2023/04/24 01:05:55;;;;;;;7.75;7.15;;;9.80;99.90;;;;;;6159670;23;20336;-87
2023/04/24 01:08:24;;;;;;;7.60;6.90;;;9.90;99.90;;;;;;6159869;23;20001;-87
2023/04/24 01:10:52;;;;;;;8.23;7.45;;;10.00;99.90;;;;;;6159066;23;20005;-86
2023/04/24 01:13:19;;;;;;;7.80;7.20;;;10.00;99.90;;;;;;6159241;23;20032;-87
2023/04/24 01:15:45;;;;;;;7.93;7.32;;;10.10;99.90;;;;;;6160120;23;20012;-87
2023/04/24 01:18:11;;;;;;;7.90;7.20;;;10.10;99.90;;;;;;6159370;23;20087;-88
2023/04/24 01:20:42;;;;;;;8.27;7.50;;;10.20;99.90;;;;;;6160566;23;20080;-88
2023/04/24 01:23:08;;;;;;;8.07;7.38;;;10.20;99.90;;;;;;6159659;23;20533;-87
2023/04/24 01:25:34;;;;;;;8.38;7.45;;;10.20;99.90;;;;;;6160108;23;20012;-88
2023/04/24 01:28:00;;;;;;;8.68;7.88;;;10.20;99.90;;;;;;6159932;23;20001;-88
2023/04/24 01:30:26;;;;;;;7.88;7.18;;;10.30;99.90;;;;;;6159941;23;20001;-87
2023/04/24 01:32:52;;;;;;;8.10;7.47;;;10.30;99.90;;;;;;6158562;23;20005;-87
2023/04/24 01:35:19;;;;;;;7.93;7.22;;;10.40;99.90;;;;;;6158008;23;20007;-88
2023/04/24 01:37:45;;;;;;;8.02;7.38;;;10.40;99.90;;;;;;6160323;23;20059;-89
2023/04/24 01:40:11;;;;;;;7.85;7.25;;;10.50;99.90;;;;;;6159924;23;20421;-88
2023/04/24 01:42:41;;;;;;;8.30;7.60;;;10.50;99.90;;;;;;6159921;23;20005;-89
2023/04/24 01:45:10;;;;;;;7.82;7.22;;;10.60;99.90;;;;;;6168110;23;20024;-88
2023/04/24 01:47:36;;;;;;;7.47;6.82;;;10.60;99.90;;;;;;6180207;23;20005;-87
2023/04/24 01:50:03;;;;;;;8.93;8.05;;;10.50;99.90;;;;;;6162499;23;20009;-89
2023/04/24 01:52:31;;;;;;;7.78;7.07;;;10.50;99.90;;;;;;6160030;23;20005;-88
2023/04/24 01:54:59;;;;;;;8.73;8.02;;;10.40;99.90;;;;;;6160353;23;20127;-89
2023/04/24 01:57:33;;;;;;;8.95;8.27;;;10.40;99.90;;;;;;6160654;23;20005;-88
2023/04/24 01:59:59;;;;;;;9.55;8.77;;;10.30;99.90;;;;;;6161592;23;20028;-88
2023/04/24 02:02:27;;;;;;;9.27;8.48;;;10.30;99.90;;;;;;6160447;23;20091;-88
2023/04/24 02:04:54;;;;;;;9.50;8.75;;;10.40;99.90;;;;;;6161389;23;20109;-86
2023/04/24 02:07:23;;;;;;;9.93;9.23;;;10.40;99.90;;;;;;6160127;23;20092;-88
2023/04/24 02:09:48;;;;;;;9.80;9.10;;;10.40;99.90;;;;;;6160026;23;20008;-90
2023/04/24 02:12:22;;;;;;;9.70;8.90;;;10.40;99.90;;;;;;6160447;23;20047;-88
2023/04/24 02:14:59;;;;;;;10.57;9.77;;;10.30;99.90;;;;;;6162336;23;20001;-89
2023/04/24 02:17:36;;;;;;;10.48;9.45;;;10.30;99.90;;;;;;6162465;23;20005;-89
2023/04/24 02:20:08;;;;;;;10.52;9.70;;;10.20;99.90;;;;;;6164007;23;20005;-88
2023/04/24 02:22:34;;;;;;;10.65;9.85;;;10.20;99.90;;;;;;6161008;23;20012;-87
2023/04/24 02:25:00;;;;;;;9.80;9.10;;;10.20;99.90;;;;;;6161665;23;20041;-87
2023/04/24 02:27:25;;;;;;;10.23;9.43;;;10.20;99.90;;;;;;6161496;23;20016;-87
2023/04/24 02:29:51;;;;;;;9.93;9.05;;;10.20;99.90;;;;;;6161411;23;20023;-88
2023/04/24 02:32:17;;;;;;;10.25;9.20;;;10.20;99.90;;;;;;6160924;23;20008;-87
2023/04/24 02:34:55;;;;;;;9.57;8.88;;;10.20;99.90;;;;;;6162471;23;20008;-89
2023/04/24 02:37:42;;;;;;;9.43;8.73;;;10.10;99.90;;;;;;6163560;23;20009;-88
2023/04/24 02:40:08;;;;;;;9.77;9.07;;;10.10;99.90;;;;;;6171576;23;20443;-89
2023/04/24 02:42:37;;;;;;;9.68;8.98;;;10.10;99.90;;;;;;6188518;23;20021;-88
2023/04/24 02:45:06;;;;;;;10.18;9.35;;;10.10;99.90;;;;;;6213665;23;20032;-89
2023/04/24 02:48:20;;;;;;;;;;;;;;;;;;;;;
2023/04/24 02:50:46;;;;;;;9.10;8.50;;;10.20;99.90;;;;;;6189070;23;20088;-87
2023/04/24 02:53:12;;;;;;;9.65;8.95;;;10.20;99.90;;;;;;6161563;23;19997;-89
2023/04/24 02:55:38;;;;;;;9.88;8.82;;;10.20;99.90;;;;;;6160362;23;20325;-87
2023/04/24 02:58:04;;;;;;;8.65;7.88;;;10.20;99.90;;;;;;6160340;23;20004;-87
2023/04/24 03:00:30;;;;;;;8.70;7.93;;;10.20;99.90;;;;;;6160037;23;20009;-88
2023/04/24 03:02:55;;;;;;;8.60;7.78;;;10.20;99.90;;;;;;6161442;23;20009;-88
2023/04/24 03:05:21;;;;;;;10.20;8.05;;;10.10;99.90;;;;;;6161113;23;20088;-86
2023/04/24 03:07:52;;;;;;;8.25;7.65;;;10.20;99.90;;;;;;6160694;23;20036;-87
2023/04/24 03:10:18;;;;;;;8.30;7.70;;;10.20;99.90;;;;;;6161609;23;20007;-86
2023/04/24 03:12:44;;;;;;;8.48;7.63;;;10.20;99.90;;;;;;6163502;23;20033;-87
2023/04/24 03:15:09;;;;;;;8.90;8.20;;;10.20;99.90;;;;;;6162226;23;20001;-87
2023/04/24 03:17:36;;;;;;;8.05;7.50;;;10.20;99.90;;;;;;6160943;23;20036;-87
2023/04/24 03:20:05;;;;;;;8.82;8.13;;;10.30;99.90;;;;;;6161831;23;20004;-87
2023/04/24 03:22:49;;;;;;;8.85;8.15;;;10.30;99.90;;;;;;6160879;23;20013;-88
2023/04/24 03:25:17;;;;;;;9.00;8.20;;;10.40;99.90;;;;;;6161722;23;20013;-88
2023/04/24 03:27:57;;;;;;;8.93;8.23;;;10.40;99.90;;;;;;6161523;23;20008;-88
2023/04/24 03:30:26;;;;;;;9.05;8.05;;;10.50;99.90;;;;;;6161434;23;20013;-88
2023/04/24 03:32:55;;;;;;;8.20;7.55;;;10.60;99.90;;;;;;6161784;23;19997;-89
2023/04/24 03:35:26;;;;;;;9.15;8.35;;;10.60;99.90;;;;;;6161904;23;20013;-89
2023/04/24 03:37:54;;;;;;;8.55;7.93;;;10.80;99.90;;;;;;6161579;23;20032;-88
2023/04/24 03:40:22;;;;;;;8.70;8.00;;;10.70;99.90;;;;;;6160691;23;20872;-87
2023/04/24 03:42:48;;;;;;;8.57;7.88;;;10.80;99.90;;;;;;6161045;23;20001;-88
2023/04/24 03:45:25;;;;;;;7.57;6.97;;;10.80;99.90;;;;;;6161090;23;20013;-88
2023/04/24 03:48:16;;;;;;;;;;;;;;;;;;;;;
2023/04/24 03:53:43;;;;;;;8.90;8.20;;;10.90;99.90;;;;;;6166597;23;20009;-88
2023/04/24 03:56:09;;;;;;;8.55;7.95;;;10.80;99.90;;;;;;6187874;23;20436;-88
2023/04/24 03:58:35;;;;;;;8.93;8.23;;;10.80;99.90;;;;;;6160808;23;20001;-88
2023/04/24 04:01:00;;;;;;;9.20;8.27;;;10.80;99.90;;;;;;6159984;23;20008;-87
2023/04/24 04:03:26;;;;;;;9.95;9.25;;;10.90;99.90;;;;;;6160434;23;20013;-87
2023/04/24 04:05:52;;;;;;;9.25;8.55;;;10.90;99.90;;;;;;6161532;23;20001;-88
2023/04/24 04:08:18;;;;;;;8.50;7.90;;;10.90;99.90;;;;;;6160512;23;20016;-87
2023/04/24 04:10:44;;;;;;;8.90;8.10;;;10.80;99.90;;;;;;6161435;23;20005;-87
2023/04/24 04:13:12;;;;;;;9.27;8.38;;;10.80;99.90;;;;;;6173365;23;20005;-85
2023/04/24 04:15:38;;;;;;;8.57;7.88;;;10.80;99.90;;;;;;6179072;23;20005;-87
2023/04/24 04:18:03;;;;;;;10.05;9.25;;;10.80;99.90;;;;;;6161630;23;20008;-86
2023/04/24 04:20:29;;;;;;;9.38;8.50;;;10.90;99.90;;;;;;6159923;23;20005;-87
2023/04/24 04:22:55;;;;;;;9.30;8.60;;;10.80;99.90;;;;;;6178542;23;20000;-87
2023/04/24 04:25:20;;;;;;;9.45;8.20;;;10.90;99.90;;;;;;6186505;23;20028;-87
2023/04/24 04:27:48;;;;;;;8.88;8.18;;;10.90;99.90;;;;;;6186338;23;19993;-88
2023/04/24 04:30:14;;;;;;;9.20;8.00;;;10.90;99.90;;;;;;6186051;23;19997;-88
2023/04/24 04:32:40;;;;;;;10.05;9.27;;;10.90;99.90;;;;;;6182304;23;20009;-87
2023/04/24 04:35:06;;;;;;;8.85;8.07;;;10.90;99.90;;;;;;6167080;23;20379;-88
2023/04/24 04:37:33;;;;;;;9.60;8.80;;;11.00;99.90;;;;;;6194968;23;19997;-87
2023/04/24 04:39:59;;;;;;;9.05;8.35;;;11.00;99.90;;;;;;6167127;23;20385;-87
2023/04/24 04:42:26;;;;;;;8.48;7.88;;;11.20;99.90;;;;;;6165433;23;20012;-88
2023/04/24 04:44:52;;;;;;;7.93;7.32;;;11.30;99.90;;;;;;6163111;23;20443;-87
2023/04/24 04:47:22;;;;;;;7.70;7.10;;;11.50;99.90;;;;;;6161711;23;20009;-87
2023/04/24 04:49:48;;;;;;;7.40;6.80;;;11.70;99.90;;;;;;6160994;23;20005;-88
2023/04/24 04:52:14;;;;;;;7.53;6.82;;;12.10;99.90;;;;;;6162745;23;20008;-88
2023/04/24 04:54:39;;;;;;;6.32;5.82;;;12.60;99.90;;;;;;6161579;23;20011;-88
2023/04/24 04:57:05;;;;;;;5.55;4.65;;;13.60;99.90;;;;;;6161574;23;20005;-89
2023/04/24 04:59:31;;;;;;;4.70;4.30;;;14.80;99.90;;;;;;6160860;23;20035;-87
2023/04/24 05:01:57;;;;;;;4.25;3.85;;;16.20;99.90;;;;;;6162104;23;20429;-89
2023/04/24 05:04:23;;;;;;;4.47;3.60;;;16.70;99.90;;;;;;6163888;23;20021;-88
2023/04/24 05:06:50;;;;;;;4.95;4.50;;;17.20;99.90;;;;;;6163193;23;20005;-88
2023/04/24 05:09:19;;;;;;;4.70;4.00;;;16.40;99.90;;;;;;6163417;23;20004;-88
2023/04/24 05:11:44;;;;;;;4.20;3.80;;;16.50;99.90;;;;;;6165129;23;20001;-89
2023/04/24 05:14:12;;;;;;;3.20;3.00;;;16.90;99.90;;;;;;6164503;23;20008;-88
2023/04/24 05:16:38;;;;;;;3.33;3.03;;;17.70;99.90;;;;;;6163279;23;20091;-87
2023/04/24 05:19:04;;;;;;;3.45;3.15;;;18.00;99.90;;;;;;6161980;23;20001;-87
2023/04/24 05:21:30;;;;;;;3.40;3.17;;;17.50;99.90;;;;;;6164288;23;20097;-90
2023/04/24 05:23:56;;;;;;;4.55;3.22;;;16.60;99.90;;;;;;6162839;23;20009;-89
2023/04/24 05:26:22;;;;;;;3.70;3.40;;;15.70;99.90;;;;;;6163694;23;20044;-90
2023/04/24 05:28:48;;;;;;;3.38;2.95;;;15.40;99.90;;;;;;6163249;23;19997;-89
2023/04/24 05:31:14;;;;;;;3.13;2.80;;;15.50;99.90;;;;;;6163972;23;20024;-89
2023/04/24 05:33:40;;;;;;;3.20;3.00;;;16.00;99.90;;;;;;6162949;23;20009;-86
2023/04/24 05:36:06;;;;;;;3.65;3.20;;;16.10;99.90;;;;;;6163464;23;20002;-88
2023/04/24 05:38:32;;;;;;;3.47;2.55;;;16.10;99.90;;;;;;6164429;23;20028;-88
2023/04/24 05:41:18;;;;;;;2.60;2.38;;;16.10;99.90;;;;;;6167509;23;20005;-90
2023/04/24 05:43:53;;;;;;;2.88;2.63;;;16.20;99.90;;;;;;6165368;23;20027;-89
2023/04/24 05:54:36;;;;;;;2.80;2.47;;;15.10;99.90;;;;;;6014137;23;20019;-88
2023/04/24 06:01:08;;;;;;;2.83;2.33;;;14.70;99.90;;;;;;6001228;23;20018;-88
2023/04/24 06:08:45;;;;;;;2.53;2.00;;;15.40;99.90;;;;;;6089161;23;20202;-86
2023/04/24 06:11:14;;;;;;;1.65;1.50;;;15.50;99.90;;;;;;6161668;23;20016;-88
2023/04/24 06:13:39;;;;;;;4.57;1.92;;;15.60;99.90;;;;;;6164671;23;20001;-86
2023/04/24 06:16:05;;;;;;;2.13;1.67;;;16.00;99.90;;;;;;6163848;23;20009;-86
2023/04/24 06:18:31;;;;;;;1.90;1.73;;;16.50;99.90;;;;;;6162876;23;20005;-88
2023/04/24 06:20:56;;;;;;;2.95;1.50;;;17.10;99.90;;;;;;6163687;23;20085;-88
2023/04/24 06:23:22;;;;;;;2.67;1.60;;;17.70;99.90;;;;;;6188984;23;19997;-89
2023/04/24 06:25:47;;;;;;;2.08;1.58;;;17.80;99.90;;;;;;6189861;23;20005;-86
2023/04/24 06:28:13;;;;;;;1.70;1.60;;;18.30;99.90;;;;;;6187783;23;20021;-88
2023/04/24 06:30:39;;;;;;;2.15;1.60;;;18.80;99.90;;;;;;6187501;23;20005;-88
2023/04/24 06:33:04;;;;;;;3.88;1.42;;;19.20;99.90;;;;;;6160757;23;20011;-88
2023/04/24 06:35:30;;;;;;;1.83;1.70;;;19.70;99.90;;;;;;6161638;23;20009;-89
2023/04/24 06:38:19;;;;;;;2.38;1.20;;;20.70;99.90;;;;;;6164429;23;20030;-89
2023/04/24 06:51:49;;;;;;;1.50;1.10;;;22.30;99.90;;;;;;6072835;23;20009;-88
2023/04/24 06:54:15;;;;;;;2.10;1.30;;;22.50;99.90;;;;;;6063434;23;20077;-84
2023/04/24 06:56:41;;;;;;;3.17;1.30;;;21.70;99.90;;;;;;6114848;23;20001;-86
2023/04/24 06:59:06;;;;;;;2.10;1.20;;;20.30;99.90;;;;;;6195796;23;19997;-85
2023/04/24 07:01:32;;;;;;;3.53;1.50;;;21.10;99.90;;;;;;6167622;23;20009;-87
2023/04/24 07:03:58;;;;;;;1.50;1.20;;;22.00;99.90;;;;;;6208014;23;20028;-87
2023/04/24 07:06:24;;;;;;;3.25;1.40;;;23.00;99.90;;;;;;6199635;23;20011;-87
2023/04/24 07:08:49;;;;;;;2.55;1.02;;;24.80;99.90;;;;;;6199281;23;20011;-87
2023/04/24 07:11:15;;;;;;;1.52;1.25;;;25.40;97.80;;;;;;6195413;23;20459;-87
2023/04/24 07:13:44;;;;;;;1.92;1.00;;;23.60;99.90;;;;;;6198203;23;20026;-85
2023/04/24 07:16:10;;;;;;;1.38;1.27;;;22.00;99.90;;;;;;6193166;23;20015;-87
2023/04/24 07:18:36;;;;;;;1.60;0.80;;;22.60;99.90;;;;;;6221162;23;20005;-87
2023/04/24 07:21:02;;;;;;;2.63;1.05;;;22.90;99.90;;;;;;6220745;23;20413;-87
2023/04/24 07:23:27;;;;;;;1.40;1.00;;;23.30;99.90;;;;;;6219645;23;19996;-87
2023/04/24 07:25:53;;;;;;;0.85;0.82;;;25.40;97.00;;;;;;6194994;23;20008;-86
2023/04/24 07:28:19;;;;;;;0.95;0.75;;;26.30;96.30;;;;;;6195416;23;20008;-86
2023/04/24 07:30:45;;;;;;;0.93;0.73;;;27.10;94.50;;;;;;6191952;23;20094;-85
2023/04/24 07:33:12;;;;;;;0.70;0.63;;;26.90;93.70;;;;;;6194275;23;20005;-87
2023/04/24 07:35:38;;;;;;;1.90;0.98;;;27.00;93.20;;;;;;6193031;23;20004;-86
2023/04/24 07:38:04;;;;;;;2.63;0.95;;;27.40;92.00;;;;;;6221022;23;20294;-88
2023/04/24 07:40:30;;;;;;;1.85;0.98;;;28.30;90.60;;;;;;6195910;23;20008;-86
2023/04/24 07:42:55;;;;;;;1.05;0.80;;;28.30;90.90;;;;;;6196748;23;20035;-86
2023/04/24 07:45:23;;;;;;;1.17;0.90;;;27.90;90.80;;;;;;6222278;23;20424;-86
2023/04/24 07:47:50;;;;;;;3.00;1.10;;;28.20;89.40;;;;;;6197747;23;20005;-86
2023/04/24 07:50:15;;;;;;;2.70;1.15;;;27.60;91.00;;;;;;6195847;23;20430;-86
2023/04/24 07:52:41;;;;;;;1.58;0.88;;;27.10;90.30;;;;;;6193889;23;19998;-87
2023/04/24 07:55:08;;;;;;;0.85;0.80;;;26.30;90.70;;;;;;6195097;23;20005;-86
2023/04/24 07:57:33;;;;;;;1.70;0.90;;;25.20;91.60;;;;;;6196144;23;20027;-86
2023/04/24 07:59:59;;;;;;;1.20;0.80;;;24.00;93.30;;;;;;6221252;23;20425;-87
2023/04/24 08:02:26;;;;;;;2.17;0.80;;;22.30;95.90;;;;;;6190808;23;20008;-86
2023/04/24 08:04:54;;;;;;;1.42;0.93;;;21.70;97.10;;;;;;6191677;23;20071;-86
2023/04/24 08:07:20;;;;;;;4.32;1.25;;;22.10;97.00;;;;;;6191016;23;20028;-87
2023/04/24 08:09:46;;;;;;;1.45;0.70;;;23.00;96.10;;;;;;6219072;23;20013;-86
2023/04/24 08:12:11;;;;;;;1.40;0.70;;;25.30;92.70;;;;;;6191592;23;20007;-87
2023/04/24 08:14:37;;;;;;;0.95;0.60;;;24.80;93.10;;;;;;6192559;23;20011;-86
2023/04/24 08:17:03;;;;;;;1.33;1.00;;;23.20;94.20;;;;;;6192237;23;20008;-88
2023/04/24 08:19:28;;;;;;;2.67;1.00;;;21.50;96.00;;;;;;6190677;23;20631;-86
2023/04/24 08:21:54;;;;;;;1.88;1.08;;;20.10;99.00;;;;;;6189748;23;20350;-86
2023/04/24 08:24:20;;;;;;;3.53;0.77;;;20.80;98.90;;;;;;6191253;23;20004;-87
2023/04/24 08:26:46;;;;;;;2.10;0.77;;;22.70;96.40;;;;;;6216798;23;20027;-87
2023/04/24 08:29:11;;;;;;;1.35;0.82;;;23.20;95.00;;;;;;6215984;23;20574;-86
2023/04/24 08:31:37;;;;;;;3.28;0.90;;;22.70;96.40;;;;;;6189502;23;20455;-87
2023/04/24 08:34:02;;;;;;;1.70;0.80;;;21.80;96.80;;;;;;6189987;23;20047;-86
2023/04/24 08:36:28;;;;;;;2.97;1.08;;;20.40;97.10;;;;;;6216433;23;20012;-86
2023/04/24 08:38:54;;;;;;;1.02;0.93;;;19.80;99.00;;;;;;6216428;23;20306;-86
2023/04/24 08:41:19;;;;;;;1.40;1.05;;;19.40;99.90;;;;;;6189965;23;20080;-87
2023/04/24 08:43:48;;;;;;;2.92;1.23;;;18.90;99.90;;;;;;6189754;23;20009;-86
2023/04/24 08:46:16;;;;;;;3.43;1.00;;;18.60;99.90;;;;;;6190133;23;20384;-86
2023/04/24 08:48:42;;;;;;;1.40;0.95;;;18.60;99.90;;;;;;6189751;23;20024;-88
2023/04/24 08:51:08;;;;;;;2.13;1.08;;;18.40;99.90;;;;;;6216133;23;20003;-87
2023/04/24 08:53:35;;;;;;;3.10;1.10;;;18.30;99.90;;;;;;6215985;23;20007;-88
2023/04/24 08:56:01;;;;;;;1.67;1.00;;;18.20;99.90;;;;;;6189686;23;20056;-88
2023/04/24 08:58:28;;;;;;;2.05;0.90;;;18.50;99.90;;;;;;6189991;23;20005;-87
2023/04/24 09:00:58;;;;;;;0.70;0.70;;;18.40;99.90;;;;;;6188231;23;20015;-88
2023/04/24 09:03:24;;;;;;;2.45;0.75;;;18.60;99.90;;;;;;6189743;23;20009;-87
2023/04/24 09:05:52;;;;;;;2.45;0.80;;;18.70;99.90;;;;;;6189671;23;20001;-86
2023/04/24 09:08:19;;;;;;;3.75;1.25;;;18.90;99.90;;;;;;6189081;23;20005;-88
2023/04/24 09:10:44;;;;;;;2.10;1.10;;;18.70;99.90;;;;;;6189390;23;20013;-87
2023/04/24 09:13:11;;;;;;;2.13;1.10;;;18.30;99.90;;;;;;6187363;23;20083;-86
2023/04/24 09:15:38;;;;;;;3.30;1.00;;;18.30;99.90;;;;;;6187804;23;20107;-87
2023/04/24 09:18:04;;;;;;;2.08;1.15;;;18.00;99.90;;;;;;6215411;23;20419;-87
2023/04/24 09:20:31;;;;;;;2.30;1.10;;;17.70;99.90;;;;;;6212982;23;20009;-88
2023/04/24 09:22:57;;;;;;;1.90;1.00;;;17.80;99.90;;;;;;6216172;22;20072;-87
2023/04/24 09:25:34;;;;;;;1.02;0.80;;;18.20;99.90;;;;;;6215998;22;20004;-88
2023/04/24 09:28:04;;;;;;;3.05;1.10;;;19.40;99.90;;;;;;6204030;23;20011;-87
2023/04/24 09:30:30;;;;;;;2.40;1.00;;;19.90;99.90;;;;;;6189435;23;20451;-87
2023/04/24 09:33:15;;;;;;;2.75;1.00;;;19.90;99.90;;;;;;6214556;23;20028;-87
2023/04/24 09:35:45;;;;;;;1.25;0.90;;;19.90;99.90;;;;;;6188045;23;20001;-86
2023/04/24 09:38:11;;;;;;;4.82;1.13;;;19.80;99.90;;;;;;6187806;23;20324;-87
2023/04/24 09:40:36;;;;;;;1.95;1.00;;;20.40;99.90;;;;;;6189164;23;20001;-87
2023/04/24 09:43:02;;;;;;;3.45;1.20;;;21.30;99.90;;;;;;6189307;23;20375;-87
2023/04/24 09:45:35;;;;;;;1.70;1.15;;;22.00;99.90;;;;;;6189406;23;20020;-87
2023/04/24 09:48:01;;;;;;;3.05;1.40;;;22.00;97.90;;;;;;6189523;23;20001;-88
2023/04/24 09:50:26;;;;;;;3.03;1.25;;;20.50;99.80;;;;;;6216709;23;20000;-86
2023/04/24 09:53:01;;;;;;;3.88;1.10;;;19.10;99.90;;;;;;6188929;23;20008;-87
2023/04/24 09:55:27;;;;;;;2.58;1.17;;;18.30;99.90;;;;;;6189617;23;20012;-88
2023/04/24 09:57:56;;;;;;;1.58;1.02;;;17.90;99.90;;;;;;6190080;23;20480;-87
2023/04/24 10:00:29;;;;;;;1.65;1.10;;;17.90;99.90;;;;;;6189439;23;20001;-88
2023/04/24 10:02:59;;;;;;;2.38;1.00;;;18.30;99.90;;;;;;6188916;23;19997;-87
2023/04/24 10:05:31;;;;;;;2.30;1.50;;;18.60;99.90;;;;;;6214524;22;20062;-85
2023/04/24 10:08:04;;;;;;;3.83;1.30;;;18.40;99.90;;;;;;6186262;23;20004;-86
2023/04/24 10:10:31;;;;;;;2.90;1.00;;;17.80;99.90;;;;;;6212932;23;20023;-87
2023/04/24 10:12:57;;;;;;;2.65;1.40;;;17.60;99.90;;;;;;6186860;23;20012;-86
2023/04/24 10:15:22;;;;;;;2.42;1.13;;;17.40;99.90;;;;;;6214982;23;20058;-86
2023/04/24 10:17:52;;;;;;;1.15;0.90;;;17.50;99.90;;;;;;6189152;23;20008;-87
2023/04/24 10:20:23;;;;;;;0.88;0.80;;;17.60;99.90;;;;;;6189048;23;19997;-87
2023/04/24 10:22:51;;;;;;;2.97;1.10;;;17.70;99.90;;;;;;6215317;23;20003;-88
2023/04/24 10:25:18;;;;;;;29.13;2.72;;;17.60;99.90;;;;;;6215352;23;20373;-87
2023/04/24 10:27:45;;;;;;;1.13;0.88;;;17.90;99.90;;;;;;6189703;23;20008;-88
2023/04/24 10:30:13;;;;;;;23.15;2.30;;;18.40;99.90;;;;;;6190080;23;20084;-88
2023/04/24 10:32:41;;;;;;;3.55;1.10;;;18.50;99.90;;;;;;6216372;23;20008;-88
2023/04/24 10:35:08;;;;;;;3.92;1.00;;;18.40;99.90;;;;;;6189548;23;20009;-86
2023/04/24 10:37:40;;;;;;;1.52;0.90;;;18.70;99.90;;;;;;6189756;23;20030;-86
2023/04/24 10:40:08;;;;;;;2.05;1.17;;;18.70;99.90;;;;;;6190279;23;20009;-87
2023/04/24 10:42:34;;;;;;;2.60;1.25;;;18.80;99.90;;;;;;6190192;23;20011;-88
2023/04/24 10:45:04;;;;;;;3.42;1.10;;;18.70;99.90;;;;;;6190213;23;20012;-85
2023/04/24 10:47:38;;;;;;;;;;;18.20;99.90;;;;;;6190759;23;20004;-86
2023/04/24 10:50:10;;;;;;;1.40;0.90;;;17.90;99.90;;;;;;6189968;23;20300;-86
2023/04/24 10:52:51;;;;;;;2.53;1.10;;;18.40;99.90;;;;;;6216983;23;20001;-86
2023/04/24 10:55:37;;;;;;;4.72;0.90;;;18.50;99.90;;;;;;6190216;23;20451;-86
2023/04/24 10:58:04;;;;;;;2.67;0.95;;;18.30;99.90;;;;;;6190036;23;20005;-86
2023/04/24 11:00:30;;;;;;;3.50;1.15;;;17.90;99.90;;;;;;6189947;23;20004;-87
2023/04/24 11:02:57;;;;;;;1.23;0.90;;;18.00;99.90;;;;;;6190089;23;20008;-86
2023/04/24 11:05:42;;;;;;;2.22;1.30;;;18.30;99.90;;;;;;6188922;23;20039;-86
2023/04/24 11:08:21;;;;;;;1.65;1.10;;;18.80;99.90;;;;;;6189942;23;20091;-86
2023/04/24 11:10:54;;;;;;;1.90;0.98;;;18.70;99.90;;;;;;6189975;23;20313;-86
2023/04/24 11:13:48;;;;;;;2.88;1.17;;;18.70;99.90;;;;;;6189023;23;20099;-86
2023/04/24 11:16:32;;;;;;;2.75;0.98;;;20.20;99.90;;;;;;6176341;23;20001;-87
2023/04/24 11:19:08;;;;;;;1.92;1.10;;;19.50;99.90;;;;;;6191714;23;20054;-86
2023/04/24 11:21:42;;;;;;;2.00;1.00;;;18.20;99.90;;;;;;6188705;23;20001;-87
2023/04/24 11:24:32;;;;;;;1.27;1.00;;;16.80;99.90;;;;;;6188494;23;20011;-86
2023/04/24 11:27:09;;;;;;;1.55;1.27;;;15.90;99.90;;;;;;6196724;23;20031;-89
2023/04/24 11:29:59;;;;;;;1.77;0.80;;;15.50;99.90;;;;;;6216676;23;19993;-88
2023/04/24 11:32:37;;;;;;;1.92;1.20;;;15.40;99.90;;;;;;6184689;23;20084;-88
2023/04/24 11:35:04;;;;;;;2.05;1.23;;;15.30;99.90;;;;;;6177744;23;20025;-88
2023/04/24 11:37:38;;;;;;;1.92;1.33;;;16.00;99.90;;;;;;6143714;23;20040;-88
2023/04/24 11:40:10;;;;;;;2.17;1.38;;;17.00;99.90;;;;;;6194258;23;20001;-89
2023/04/24 11:42:43;;;;;;;2.63;1.20;;;17.30;99.90;;;;;;6192894;23;20028;-88
2023/04/24 11:45:10;;;;;;;1.33;1.00;;;17.40;99.90;;;;;;6165705;23;20036;-87
2023/04/24 11:47:36;;;;;;;1.00;0.80;;;17.60;99.90;;;;;;6163158;23;20009;-87
2023/04/24 11:50:04;;;;;;;2.20;1.10;;;17.90;99.90;;;;;;6186850;23;20441;-86
2023/04/24 11:52:31;;;;;;;2.15;0.93;;;17.80;99.90;;;;;;6187021;23;20369;-87
2023/04/24 11:54:57;;;;;;;2.55;0.98;;;18.00;99.90;;;;;;6189265;23;20005;-87
2023/04/24 11:57:27;;;;;;;1.63;1.05;;;18.10;99.90;;;;;;6163460;23;20435;-87
2023/04/24 11:59:53;;;;;;;2.65;1.02;;;17.80;99.90;;;;;;6140591;23;20016;-88
2023/04/24 12:02:23;;;;;;;1.15;0.90;;;17.50;99.90;;;;;;6191144;23;20004;-87
2023/04/24 12:04:49;;;;;;;;;;;17.30;99.90;;;;;;6096709;23;20021;-87
2023/04/24 12:07:17;;;;;;;2.10;1.08;;;17.30;99.90;;;;;;6154659;23;19901;-88
2023/04/24 12:10:02;;;;;;;1.23;0.90;;;18.00;99.90;;;;;;6162793;23;20008;-88
2023/04/24 12:12:28;;;;;;;1.63;1.10;;;18.40;99.90;;;;;;6162410;23;20005;-87
2023/04/24 12:14:57;;;;;;;2.47;0.90;;;18.20;99.90;;;;;;6187973;23;20076;-88
2023/04/24 12:17:28;;;;;;;7.03;1.47;;;18.00;99.90;;;;;;6161439;23;20012;-88
2023/04/24 12:20:01;;;;;;;2.42;1.02;;;17.50;99.90;;;;;;6161632;23;20031;-88
2023/04/24 12:22:27;;;;;;;3.25;1.23;;;17.10;99.90;;;;;;6188015;23;20025;-88
2023/04/24 12:25:05;;;;;;;4.03;1.20;;;17.10;99.90;;;;;;6190961;23;20071;-87
2023/04/24 12:27:34;;;;;;;2.20;1.20;;;17.00;99.90;;;;;;6185475;23;20016;-89
2023/04/24 12:30:03;;;;;;;2.63;1.20;;;16.90;99.90;;;;;;6193038;23;20005;-89
2023/04/24 12:32:28;;;;;;;1.10;0.97;;;17.00;99.90;;;;;;6165746;23;20009;-88
2023/04/24 12:34:58;;;;;;;2.08;1.05;;;17.30;99.90;;;;;;6165703;23;20318;-89
2023/04/24 12:37:25;;;;;;;1.55;1.00;;;17.50;99.90;;;;;;6188373;23;20005;-85
2023/04/24 12:40:06;;;;;;;2.42;1.38;;;18.30;99.90;;;;;;6203560;23;20012;-87
2023/04/24 12:42:33;;;;;;;1.20;1.10;;;18.90;99.90;;;;;;6210676;23;20003;-86
2023/04/24 12:45:06;;;;;;;2.03;1.02;;;19.10;99.90;;;;;;6211858;23;20024;-88
2023/04/24 12:47:33;;;;;;;1.80;1.20;;;19.00;99.90;;;;;;6202575;23;20040;-88
2023/04/24 12:49:59;;;;;;;1.08;1.05;;;18.60;99.90;;;;;;6162579;23;20425;-88
2023/04/24 12:52:26;;;;;;;4.50;1.63;;;18.30;99.90;;;;;;6161696;23;20015;-88
2023/04/24 12:54:59;;;;;;;3.33;1.30;;;18.10;99.90;;;;;;6155945;23;20036;-87
2023/04/24 12:57:26;;;;;;;3.65;1.20;;;18.30;99.90;;;;;;6190122;23;20008;-86
2023/04/24 12:59:56;;;;;;;3.85;1.20;;;18.70;99.90;;;;;;6192401;23;20037;-87
2023/04/24 13:02:22;;;;;;;6.57;1.25;;;19.20;99.90;;;;;;6161370;23;20199;-87
2023/04/24 13:04:49;;;;;;;4.88;1.35;;;19.50;99.90;;;;;;6186923;23;20009;-87
2023/04/24 13:07:15;;;;;;;2.97;1.30;;;19.80;99.90;;;;;;6160255;23;20039;-86
2023/04/24 13:09:42;;;;;;;2.58;1.30;;;19.80;99.90;;;;;;6186345;23;20005;-87
2023/04/24 13:12:09;;;;;;;2.55;0.90;;;19.50;99.90;;;;;;6164354;23;20448;-87
2023/04/24 13:14:35;;;;;;;1.38;1.27;;;19.40;99.90;;;;;;6165392;23;20063;-87
2023/04/24 13:17:01;;;;;;;2.53;1.55;;;19.40;99.90;;;;;;6199494;23;20024;-86
2023/04/24 13:19:27;;;;;;;5.57;1.23;;;19.40;99.90;;;;;;6181092;23;20001;-87
2023/04/24 13:21:55;;;;;;;2.40;1.40;;;19.20;99.90;;;;;;6201095;23;20033;-86
2023/04/24 13:24:24;;;;;;;3.15;1.20;;;18.90;99.90;;;;;;6164091;23;20332;-88
2023/04/24 13:26:51;;;;;;;;;;;18.50;99.90;;;;;;6187912;23;20368;-88
2023/04/24 13:29:17;;;;;;;1.65;1.25;;;18.50;99.90;;;;;;6186472;23;19900;-88